sensor_id;sensor_type;location;lat;lon;timestamp;P1;durP1;ratioP1;P2;durP2;ratioP2
17917;SDS011;9084;50.956;3.106;2023-02-28T00:01:22;4.03;;;3.63;;
17917;SDS011;9084;50.956;3.106;2023-02-28T00:03:52;3.30;;;2.90;;
17917;SDS011;9084;50.956;3.106;2023-02-28T00:06:21;6.33;;;3.67;;
17917;SDS011;9084;50.956;3.106;2023-02-28T00:08:46;4.53;;;3.70;;
17917;SDS011;9084;50.956;3.106;2023-02-28T00:11:13;4.90;;;3.40;;
17917;SDS011;9084;50.956;3.106;2023-02-28T00:13:41;3.73;;;3.40;;
17917;SDS011;9084;50.956;3.106;2023-02-28T00:16:12;4.00;;;3.60;;
17917;SDS011;9084;50.956;3.106;2023-02-28T00:18:40;4.10;;;3.70;;
17917;SDS011;9084;50.956;3.106;2023-02-28T00:21:08;6.07;;;4.13;;
17917;SDS011;9084;50.956;3.106;2023-02-28T00:23:37;4.53;;;4.10;;
17917;SDS011;9084;50.956;3.106;2023-02-28T00:26:02;4.43;;;3.30;;
17917;SDS011;9084;50.956;3.106;2023-02-28T00:28:31;4.17;;;3.50;;
17917;SDS011;9084;50.956;3.106;2023-02-28T00:30:57;6.17;;;4.40;;
17917;SDS011;9084;50.956;3.106;2023-02-28T00:33:24;4.27;;;3.87;;
17917;SDS011;9084;50.956;3.106;2023-02-28T00:35:51;4.23;;;3.83;;
17917;SDS011;9084;50.956;3.106;2023-02-28T00:38:16;4.70;;;4.30;;
17917;SDS011;9084;50.956;3.106;2023-02-28T00:40:44;4.17;;;3.77;;
17917;SDS011;9084;50.956;3.106;2023-02-28T00:43:13;5.87;;;3.87;;
17917;SDS011;9084;50.956;3.106;2023-02-28T00:45:38;4.47;;;3.90;;
17917;SDS011;9084;50.956;3.106;2023-02-28T00:48:09;4.63;;;4.17;;
17917;SDS011;9084;50.956;3.106;2023-02-28T00:50:34;3.63;;;3.30;;
17917;SDS011;9084;50.956;3.106;2023-02-28T00:53:03;4.83;;;4.10;;
17917;SDS011;9084;50.956;3.106;2023-02-28T00:55:30;4.43;;;4.00;;
17917;SDS011;9084;50.956;3.106;2023-02-28T00:57:56;3.97;;;3.57;;
17917;SDS011;9084;50.956;3.106;2023-02-28T01:00:22;4.70;;;3.73;;
17917;SDS011;9084;50.956;3.106;2023-02-28T01:02:47;4.13;;;3.73;;
17917;SDS011;9084;50.956;3.106;2023-02-28T01:05:13;3.50;;;3.20;;
17917;SDS011;9084;50.956;3.106;2023-02-28T01:07:38;4.60;;;3.83;;
17917;SDS011;9084;50.956;3.106;2023-02-28T01:10:04;5.33;;;4.57;;
17917;SDS011;9084;50.956;3.106;2023-02-28T01:12:30;5.47;;;4.20;;
17917;SDS011;9084;50.956;3.106;2023-02-28T01:14:56;4.00;;;3.70;;
17917;SDS011;9084;50.956;3.106;2023-02-28T01:17:22;5.43;;;3.97;;
17917;SDS011;9084;50.956;3.106;2023-02-28T01:19:48;4.73;;;3.87;;
17917;SDS011;9084;50.956;3.106;2023-02-28T01:22:14;4.03;;;3.73;;
17917;SDS011;9084;50.956;3.106;2023-02-28T01:24:41;5.30;;;3.57;;
17917;SDS011;9084;50.956;3.106;2023-02-28T01:27:07;4.73;;;4.33;;
17917;SDS011;9084;50.956;3.106;2023-02-28T01:29:33;5.80;;;4.17;;
17917;SDS011;9084;50.956;3.106;2023-02-28T01:31:58;5.67;;;3.97;;
17917;SDS011;9084;50.956;3.106;2023-02-28T01:34:26;4.30;;;3.90;;
17917;SDS011;9084;50.956;3.106;2023-02-28T01:36:54;4.80;;;4.23;;
17917;SDS011;9084;50.956;3.106;2023-02-28T01:39:20;4.60;;;4.20;;
17917;SDS011;9084;50.956;3.106;2023-02-28T01:41:46;5.33;;;3.93;;
17917;SDS011;9084;50.956;3.106;2023-02-28T01:47:15;4.93;;;4.23;;
17917;SDS011;9084;50.956;3.106;2023-02-28T01:49:40;4.90;;;4.33;;
17917;SDS011;9084;50.956;3.106;2023-02-28T01:52:07;7.90;;;4.77;;
17917;SDS011;9084;50.956;3.106;2023-02-28T01:54:42;4.20;;;3.90;;
17917;SDS011;9084;50.956;3.106;2023-02-28T01:57:16;6.57;;;4.40;;
17917;SDS011;9084;50.956;3.106;2023-02-28T01:59:48;4.43;;;4.03;;
17917;SDS011;9084;50.956;3.106;2023-02-28T02:02:29;4.70;;;4.20;;
17917;SDS011;9084;50.956;3.106;2023-02-28T02:05:06;7.17;;;4.80;;
17917;SDS011;9084;50.956;3.106;2023-02-28T02:07:37;6.07;;;4.80;;
17917;SDS011;9084;50.956;3.106;2023-02-28T02:15:48;4.97;;;4.57;;
17917;SDS011;9084;50.956;3.106;2023-02-28T02:41:49;5.23;;;4.73;;
17917;SDS011;9084;50.956;3.106;2023-02-28T02:44:23;4.97;;;4.30;;
17917;SDS011;9084;50.956;3.106;2023-02-28T02:46:58;5.13;;;4.63;;
17917;SDS011;9084;50.956;3.106;2023-02-28T02:49:33;5.23;;;4.70;;
17917;SDS011;9084;50.956;3.106;2023-02-28T02:52:06;8.67;;;5.63;;
17917;SDS011;9084;50.956;3.106;2023-02-28T02:54:35;5.83;;;4.57;;
17917;SDS011;9084;50.956;3.106;2023-02-28T02:57:07;4.97;;;4.57;;
17917;SDS011;9084;50.956;3.106;2023-02-28T02:59:37;5.90;;;5.30;;
17917;SDS011;9084;50.956;3.106;2023-02-28T03:02:08;5.70;;;5.20;;
17917;SDS011;9084;50.956;3.106;2023-02-28T03:04:39;7.10;;;5.07;;
17917;SDS011;9084;50.956;3.106;2023-02-28T03:07:08;6.93;;;5.30;;
17917;SDS011;9084;50.956;3.106;2023-02-28T03:09:34;5.67;;;5.17;;
17917;SDS011;9084;50.956;3.106;2023-02-28T03:12:02;7.40;;;5.13;;
17917;SDS011;9084;50.956;3.106;2023-02-28T03:14:40;6.27;;;5.67;;
17917;SDS011;9084;50.956;3.106;2023-02-28T03:22:46;6.57;;;5.87;;
17917;SDS011;9084;50.956;3.106;2023-02-28T03:31:01;6.03;;;5.53;;
17917;SDS011;9084;50.956;3.106;2023-02-28T03:33:38;6.30;;;5.70;;
17917;SDS011;9084;50.956;3.106;2023-02-28T03:36:18;6.77;;;5.73;;
17917;SDS011;9084;50.956;3.106;2023-02-28T03:41:22;6.97;;;6.20;;
17917;SDS011;9084;50.956;3.106;2023-02-28T03:43:56;6.53;;;5.93;;
17917;SDS011;9084;50.956;3.106;2023-02-28T03:46:27;6.70;;;6.10;;
17917;SDS011;9084;50.956;3.106;2023-02-28T03:51:37;6.67;;;6.13;;
17917;SDS011;9084;50.956;3.106;2023-02-28T03:54:07;6.87;;;6.17;;
17917;SDS011;9084;50.956;3.106;2023-02-28T03:56:42;6.90;;;6.27;;
17917;SDS011;9084;50.956;3.106;2023-02-28T04:01:51;6.73;;;6.13;;
17917;SDS011;9084;50.956;3.106;2023-02-28T04:04:20;7.10;;;6.40;;
17917;SDS011;9084;50.956;3.106;2023-02-28T04:06:48;7.20;;;6.60;;
17917;SDS011;9084;50.956;3.106;2023-02-28T04:09:18;7.40;;;6.67;;
17917;SDS011;9084;50.956;3.106;2023-02-28T04:11:53;8.03;;;6.20;;
17917;SDS011;9084;50.956;3.106;2023-02-28T04:14:20;7.00;;;6.40;;
17917;SDS011;9084;50.956;3.106;2023-02-28T04:16:47;6.10;;;5.50;;
17917;SDS011;9084;50.956;3.106;2023-02-28T04:19:12;6.13;;;5.53;;
17917;SDS011;9084;50.956;3.106;2023-02-28T04:21:43;5.70;;;5.13;;
17917;SDS011;9084;50.956;3.106;2023-02-28T04:24:13;6.77;;;6.13;;
17917;SDS011;9084;50.956;3.106;2023-02-28T04:26:42;6.43;;;5.93;;
17917;SDS011;9084;50.956;3.106;2023-02-28T04:29:09;6.70;;;6.07;;
17917;SDS011;9084;50.956;3.106;2023-02-28T04:31:37;6.90;;;6.20;;
17917;SDS011;9084;50.956;3.106;2023-02-28T04:34:05;6.27;;;5.67;;
17917;SDS011;9084;50.956;3.106;2023-02-28T04:36:31;5.97;;;5.43;;
17917;SDS011;9084;50.956;3.106;2023-02-28T04:38:57;6.73;;;5.57;;
17917;SDS011;9084;50.956;3.106;2023-02-28T04:41:23;7.13;;;6.40;;
17917;SDS011;9084;50.956;3.106;2023-02-28T04:43:50;6.87;;;6.27;;
17917;SDS011;9084;50.956;3.106;2023-02-28T04:46:16;8.80;;;8.00;;
17917;SDS011;9084;50.956;3.106;2023-02-28T04:48:43;7.60;;;6.90;;
17917;SDS011;9084;50.956;3.106;2023-02-28T04:51:11;13.17;;;9.87;;
17917;SDS011;9084;50.956;3.106;2023-02-28T04:53:41;10.43;;;5.80;;
17917;SDS011;9084;50.956;3.106;2023-02-28T04:56:08;7.47;;;5.40;;
17917;SDS011;9084;50.956;3.106;2023-02-28T04:58:39;7.70;;;5.67;;
17917;SDS011;9084;50.956;3.106;2023-02-28T05:01:06;7.07;;;5.17;;
17917;SDS011;9084;50.956;3.106;2023-02-28T05:03:43;5.90;;;5.07;;
17917;SDS011;9084;50.956;3.106;2023-02-28T05:06:11;6.10;;;4.83;;
17917;SDS011;9084;50.956;3.106;2023-02-28T05:08:38;6.83;;;6.10;;
17917;SDS011;9084;50.956;3.106;2023-02-28T05:11:05;5.87;;;5.27;;
17917;SDS011;9084;50.956;3.106;2023-02-28T05:13:33;5.77;;;4.90;;
17917;SDS011;9084;50.956;3.106;2023-02-28T05:16:00;5.63;;;5.03;;
17917;SDS011;9084;50.956;3.106;2023-02-28T05:18:26;9.90;;;8.97;;
17917;SDS011;9084;50.956;3.106;2023-02-28T05:20:51;6.23;;;5.70;;
17917;SDS011;9084;50.956;3.106;2023-02-28T05:23:19;9.77;;;8.30;;
17917;SDS011;9084;50.956;3.106;2023-02-28T05:25:47;6.53;;;5.90;;
17917;SDS011;9084;50.956;3.106;2023-02-28T05:28:13;7.20;;;6.50;;
17917;SDS011;9084;50.956;3.106;2023-02-28T05:30:41;6.73;;;6.07;;
17917;SDS011;9084;50.956;3.106;2023-02-28T05:33:10;7.00;;;5.83;;
17917;SDS011;9084;50.956;3.106;2023-02-28T05:35:38;7.00;;;6.40;;
17917;SDS011;9084;50.956;3.106;2023-02-28T05:38:09;6.97;;;5.73;;
17917;SDS011;9084;50.956;3.106;2023-02-28T05:40:35;6.53;;;5.93;;
17917;SDS011;9084;50.956;3.106;2023-02-28T05:43:04;7.27;;;6.50;;
17917;SDS011;9084;50.956;3.106;2023-02-28T05:45:34;5.73;;;5.03;;
17917;SDS011;9084;50.956;3.106;2023-02-28T05:48:04;6.63;;;4.67;;
17917;SDS011;9084;50.956;3.106;2023-02-28T05:50:29;5.60;;;5.10;;
17917;SDS011;9084;50.956;3.106;2023-02-28T05:52:55;9.30;;;6.63;;
17917;SDS011;9084;50.956;3.106;2023-02-28T05:55:21;5.77;;;4.80;;
17917;SDS011;9084;50.956;3.106;2023-02-28T05:57:46;6.00;;;5.10;;
17917;SDS011;9084;50.956;3.106;2023-02-28T06:00:14;5.37;;;4.90;;
17917;SDS011;9084;50.956;3.106;2023-02-28T06:02:45;6.40;;;5.07;;
17917;SDS011;9084;50.956;3.106;2023-02-28T06:05:13;5.27;;;4.77;;
17917;SDS011;9084;50.956;3.106;2023-02-28T06:07:40;6.00;;;5.10;;
17917;SDS011;9084;50.956;3.106;2023-02-28T06:10:06;6.93;;;5.07;;
17917;SDS011;9084;50.956;3.106;2023-02-28T06:12:32;6.27;;;5.67;;
17917;SDS011;9084;50.956;3.106;2023-02-28T06:14:57;6.13;;;5.10;;
17917;SDS011;9084;50.956;3.106;2023-02-28T06:17:23;7.00;;;4.67;;
17917;SDS011;9084;50.956;3.106;2023-02-28T06:19:48;7.77;;;5.20;;
17917;SDS011;9084;50.956;3.106;2023-02-28T06:22:16;7.13;;;5.10;;
17917;SDS011;9084;50.956;3.106;2023-02-28T06:24:44;5.60;;;5.00;;
17917;SDS011;9084;50.956;3.106;2023-02-28T06:27:10;5.93;;;5.43;;
17917;SDS011;9084;50.956;3.106;2023-02-28T06:29:36;7.90;;;5.27;;
17917;SDS011;9084;50.956;3.106;2023-02-28T06:32:04;5.03;;;4.50;;
17917;SDS011;9084;50.956;3.106;2023-02-28T06:34:31;6.83;;;4.87;;
17917;SDS011;9084;50.956;3.106;2023-02-28T06:36:58;4.60;;;4.17;;
17917;SDS011;9084;50.956;3.106;2023-02-28T06:39:27;4.77;;;4.17;;
17917;SDS011;9084;50.956;3.106;2023-02-28T06:41:56;4.37;;;3.97;;
17917;SDS011;9084;50.956;3.106;2023-02-28T06:44:24;6.60;;;4.40;;
17917;SDS011;9084;50.956;3.106;2023-02-28T06:46:50;6.77;;;4.67;;
17917;SDS011;9084;50.956;3.106;2023-02-28T06:49:16;5.77;;;4.33;;
17917;SDS011;9084;50.956;3.106;2023-02-28T06:51:44;6.17;;;4.67;;
17917;SDS011;9084;50.956;3.106;2023-02-28T06:54:12;5.00;;;4.00;;
17917;SDS011;9084;50.956;3.106;2023-02-28T06:56:39;5.50;;;4.30;;
17917;SDS011;9084;50.956;3.106;2023-02-28T06:59:04;5.67;;;4.50;;
17917;SDS011;9084;50.956;3.106;2023-02-28T07:01:32;4.50;;;4.10;;
17917;SDS011;9084;50.956;3.106;2023-02-28T07:03:58;4.93;;;3.60;;
17917;SDS011;9084;50.956;3.106;2023-02-28T07:06:25;5.27;;;3.97;;
17917;SDS011;9084;50.956;3.106;2023-02-28T07:08:51;4.53;;;3.50;;
17917;SDS011;9084;50.956;3.106;2023-02-28T07:11:18;4.07;;;3.67;;
17917;SDS011;9084;50.956;3.106;2023-02-28T07:13:49;6.13;;;5.20;;
17917;SDS011;9084;50.956;3.106;2023-02-28T07:16:21;6.30;;;4.63;;
17917;SDS011;9084;50.956;3.106;2023-02-28T07:18:47;6.57;;;5.23;;
17917;SDS011;9084;50.956;3.106;2023-02-28T07:21:13;5.03;;;4.47;;
17917;SDS011;9084;50.956;3.106;2023-02-28T07:23:40;5.30;;;4.60;;
17917;SDS011;9084;50.956;3.106;2023-02-28T07:26:13;4.80;;;4.30;;
17917;SDS011;9084;50.956;3.106;2023-02-28T07:28:42;5.37;;;4.40;;
17917;SDS011;9084;50.956;3.106;2023-02-28T07:31:13;4.70;;;4.20;;
17917;SDS011;9084;50.956;3.106;2023-02-28T07:33:40;4.27;;;3.97;;
17917;SDS011;9084;50.956;3.106;2023-02-28T07:36:07;4.93;;;4.30;;
17917;SDS011;9084;50.956;3.106;2023-02-28T07:38:44;3.67;;;3.33;;
17917;SDS011;9084;50.956;3.106;2023-02-28T07:41:13;5.73;;;4.10;;
17917;SDS011;9084;50.956;3.106;2023-02-28T07:43:39;4.70;;;4.30;;
17917;SDS011;9084;50.956;3.106;2023-02-28T07:46:09;5.03;;;3.77;;
17917;SDS011;9084;50.956;3.106;2023-02-28T07:48:36;4.87;;;3.23;;
17917;SDS011;9084;50.956;3.106;2023-02-28T07:51:04;4.17;;;3.77;;
17917;SDS011;9084;50.956;3.106;2023-02-28T07:53:30;5.20;;;4.53;;
17917;SDS011;9084;50.956;3.106;2023-02-28T07:55:56;4.90;;;4.40;;
17917;SDS011;9084;50.956;3.106;2023-02-28T07:58:23;3.90;;;3.50;;
17917;SDS011;9084;50.956;3.106;2023-02-28T08:00:50;6.00;;;3.67;;
17917;SDS011;9084;50.956;3.106;2023-02-28T08:03:19;5.00;;;3.83;;
17917;SDS011;9084;50.956;3.106;2023-02-28T08:05:46;4.90;;;4.23;;
17917;SDS011;9084;50.956;3.106;2023-02-28T08:08:12;4.77;;;3.97;;
17917;SDS011;9084;50.956;3.106;2023-02-28T08:10:39;6.40;;;4.43;;
17917;SDS011;9084;50.956;3.106;2023-02-28T08:13:08;4.67;;;4.10;;
17917;SDS011;9084;50.956;3.106;2023-02-28T08:15:36;4.40;;;4.00;;
17917;SDS011;9084;50.956;3.106;2023-02-28T08:18:04;5.53;;;4.30;;
17917;SDS011;9084;50.956;3.106;2023-02-28T08:20:32;6.87;;;4.07;;
17917;SDS011;9084;50.956;3.106;2023-02-28T08:22:58;4.47;;;3.83;;
17917;SDS011;9084;50.956;3.106;2023-02-28T08:25:23;7.27;;;3.80;;
17917;SDS011;9084;50.956;3.106;2023-02-28T08:27:50;5.20;;;3.40;;
17917;SDS011;9084;50.956;3.106;2023-02-28T08:30:18;3.70;;;3.23;;
17917;SDS011;9084;50.956;3.106;2023-02-28T08:32:44;4.63;;;3.30;;
17917;SDS011;9084;50.956;3.106;2023-02-28T08:35:10;4.27;;;3.00;;
17917;SDS011;9084;50.956;3.106;2023-02-28T08:37:35;3.90;;;2.80;;
17917;SDS011;9084;50.956;3.106;2023-02-28T08:40:01;3.00;;;2.60;;
17917;SDS011;9084;50.956;3.106;2023-02-28T08:42:28;3.43;;;2.57;;
17917;SDS011;9084;50.956;3.106;2023-02-28T08:44:54;5.83;;;2.30;;
17917;SDS011;9084;50.956;3.106;2023-02-28T08:47:20;5.57;;;2.37;;
17917;SDS011;9084;50.956;3.106;2023-02-28T08:49:45;2.10;;;1.90;;
17917;SDS011;9084;50.956;3.106;2023-02-28T08:52:13;4.27;;;2.00;;
17917;SDS011;9084;50.956;3.106;2023-02-28T08:54:39;3.40;;;2.30;;
17917;SDS011;9084;50.956;3.106;2023-02-28T08:57:05;2.47;;;1.73;;
17917;SDS011;9084;50.956;3.106;2023-02-28T08:59:31;3.10;;;2.07;;
17917;SDS011;9084;50.956;3.106;2023-02-28T09:01:57;3.60;;;2.13;;
17917;SDS011;9084;50.956;3.106;2023-02-28T09:04:25;3.63;;;2.13;;
17917;SDS011;9084;50.956;3.106;2023-02-28T09:06:50;2.83;;;2.03;;
17917;SDS011;9084;50.956;3.106;2023-02-28T09:09:16;3.57;;;2.50;;
17917;SDS011;9084;50.956;3.106;2023-02-28T09:11:42;2.47;;;1.93;;
17917;SDS011;9084;50.956;3.106;2023-02-28T09:14:07;2.47;;;1.63;;
17917;SDS011;9084;50.956;3.106;2023-02-28T09:16:33;1.87;;;1.50;;
17917;SDS011;9084;50.956;3.106;2023-02-28T09:19:02;3.90;;;2.00;;
17917;SDS011;9084;50.956;3.106;2023-02-28T09:21:28;4.43;;;1.90;;
17917;SDS011;9084;50.956;3.106;2023-02-28T09:23:58;1.70;;;1.60;;
17917;SDS011;9084;50.956;3.106;2023-02-28T09:26:24;2.27;;;1.37;;
17917;SDS011;9084;50.956;3.106;2023-02-28T09:28:53;3.03;;;1.67;;
17917;SDS011;9084;50.956;3.106;2023-02-28T09:31:23;1.60;;;1.50;;
17917;SDS011;9084;50.956;3.106;2023-02-28T09:33:53;2.17;;;1.77;;
17917;SDS011;9084;50.956;3.106;2023-02-28T09:36:20;3.53;;;1.83;;
17917;SDS011;9084;50.956;3.106;2023-02-28T09:38:47;2.00;;;1.80;;
17917;SDS011;9084;50.956;3.106;2023-02-28T09:41:15;2.83;;;1.90;;
17917;SDS011;9084;50.956;3.106;2023-02-28T09:43:49;2.13;;;1.73;;
17917;SDS011;9084;50.956;3.106;2023-02-28T09:48:47;3.57;;;1.80;;
17917;SDS011;9084;50.956;3.106;2023-02-28T09:54:02;2.07;;;1.50;;
17917;SDS011;9084;50.956;3.106;2023-02-28T09:56:30;1.73;;;1.50;;
17917;SDS011;9084;50.956;3.106;2023-02-28T09:59:05;2.17;;;1.83;;
17917;SDS011;9084;50.956;3.106;2023-02-28T10:06:54;3.77;;;1.90;;
17917;SDS011;9084;50.956;3.106;2023-02-28T10:09:23;2.63;;;1.70;;
17917;SDS011;9084;50.956;3.106;2023-02-28T10:11:52;3.60;;;2.10;;
17917;SDS011;9084;50.956;3.106;2023-02-28T10:14:22;1.73;;;1.40;;
17917;SDS011;9084;50.956;3.106;2023-02-28T10:16:55;2.33;;;1.53;;
17917;SDS011;9084;50.956;3.106;2023-02-28T10:21:49;3.93;;;1.47;;
17917;SDS011;9084;50.956;3.106;2023-02-28T10:24:30;4.10;;;1.90;;
17917;SDS011;9084;50.956;3.106;2023-02-28T10:27:00;5.13;;;1.97;;
17917;SDS011;9084;50.956;3.106;2023-02-28T10:29:36;3.37;;;1.90;;
17917;SDS011;9084;50.956;3.106;2023-02-28T10:32:05;5.33;;;1.83;;
17917;SDS011;9084;50.956;3.106;2023-02-28T10:34:31;2.27;;;1.50;;
17917;SDS011;9084;50.956;3.106;2023-02-28T10:36:59;1.63;;;1.53;;
17917;SDS011;9084;50.956;3.106;2023-02-28T10:42:18;4.07;;;2.10;;
17917;SDS011;9084;50.956;3.106;2023-02-28T10:44:47;4.73;;;2.07;;
17917;SDS011;9084;50.956;3.106;2023-02-28T10:47:16;2.03;;;1.83;;
17917;SDS011;9084;50.956;3.106;2023-02-28T10:49:46;2.73;;;2.00;;
17917;SDS011;9084;50.956;3.106;2023-02-28T10:52:16;2.97;;;1.83;;
17917;SDS011;9084;50.956;3.106;2023-02-28T10:57:59;4.70;;;1.90;;
17917;SDS011;9084;50.956;3.106;2023-02-28T11:00:32;2.37;;;1.93;;
17917;SDS011;9084;50.956;3.106;2023-02-28T11:03:00;6.20;;;2.70;;
17917;SDS011;9084;50.956;3.106;2023-02-28T11:05:27;3.33;;;2.40;;
17917;SDS011;9084;50.956;3.106;2023-02-28T11:08:14;2.23;;;1.90;;
17917;SDS011;9084;50.956;3.106;2023-02-28T11:11:02;3.00;;;2.60;;
17917;SDS011;9084;50.956;3.106;2023-02-28T11:13:35;2.93;;;2.30;;
17917;SDS011;9084;50.956;3.106;2023-02-28T11:16:06;4.27;;;2.50;;
17917;SDS011;9084;50.956;3.106;2023-02-28T11:18:39;3.67;;;2.40;;
17917;SDS011;9084;50.956;3.106;2023-02-28T11:21:37;2.63;;;2.33;;
17917;SDS011;9084;50.956;3.106;2023-02-28T11:26:58;2.40;;;2.20;;
17917;SDS011;9084;50.956;3.106;2023-02-28T11:29:25;2.40;;;2.10;;
17917;SDS011;9084;50.956;3.106;2023-02-28T11:32:38;2.23;;;2.03;;
17917;SDS011;9084;50.956;3.106;2023-02-28T11:34:45;4.13;;;2.20;;
17917;SDS011;9084;50.956;3.106;2023-02-28T11:37:16;2.90;;;2.30;;
17917;SDS011;9084;50.956;3.106;2023-02-28T11:39:44;2.97;;;2.07;;
17917;SDS011;9084;50.956;3.106;2023-02-28T11:53:05;2.30;;;2.10;;
17917;SDS011;9084;50.956;3.106;2023-02-28T11:55:49;3.07;;;2.07;;
17917;SDS011;9084;50.956;3.106;2023-02-28T11:58:38;2.30;;;2.00;;
17917;SDS011;9084;50.956;3.106;2023-02-28T12:01:25;2.40;;;1.80;;
17917;SDS011;9084;50.956;3.106;2023-02-28T12:06:42;2.50;;;2.13;;
17917;SDS011;9084;50.956;3.106;2023-02-28T12:12:21;3.77;;;2.00;;
17917;SDS011;9084;50.956;3.106;2023-02-28T12:26:00;1.40;;;1.17;;
17917;SDS011;9084;50.956;3.106;2023-02-28T12:28:30;2.37;;;1.77;;
17917;SDS011;9084;50.956;3.106;2023-02-28T12:33:38;1.73;;;1.60;;
17917;SDS011;9084;50.956;3.106;2023-02-28T12:36:10;3.27;;;1.60;;
17917;SDS011;9084;50.956;3.106;2023-02-28T12:38:44;2.67;;;1.20;;
17917;SDS011;9084;50.956;3.106;2023-02-28T12:41:44;2.63;;;1.47;;
17917;SDS011;9084;50.956;3.106;2023-02-28T12:44:32;1.33;;;1.10;;
17917;SDS011;9084;50.956;3.106;2023-02-28T12:47:11;1.67;;;1.57;;
17917;SDS011;9084;50.956;3.106;2023-02-28T12:49:42;1.97;;;1.50;;
17917;SDS011;9084;50.956;3.106;2023-02-28T12:52:47;2.43;;;1.50;;
17917;SDS011;9084;50.956;3.106;2023-02-28T12:55:16;2.37;;;1.80;;
17917;SDS011;9084;50.956;3.106;2023-02-28T13:01:11;2.33;;;1.70;;
17917;SDS011;9084;50.956;3.106;2023-02-28T13:03:34;3.10;;;1.80;;
17917;SDS011;9084;50.956;3.106;2023-02-28T13:06:15;2.80;;;2.10;;
17917;SDS011;9084;50.956;3.106;2023-02-28T13:09:04;4.20;;;2.27;;
17917;SDS011;9084;50.956;3.106;2023-02-28T13:11:44;3.87;;;2.00;;
17917;SDS011;9084;50.956;3.106;2023-02-28T13:19:27;2.00;;;1.60;;
17917;SDS011;9084;50.956;3.106;2023-02-28T13:21:56;1.80;;;1.57;;
17917;SDS011;9084;50.956;3.106;2023-02-28T13:24:41;2.07;;;1.93;;
17917;SDS011;9084;50.956;3.106;2023-02-28T13:29:41;2.90;;;1.80;;
17917;SDS011;9084;50.956;3.106;2023-02-28T13:34:35;2.30;;;2.10;;
17917;SDS011;9084;50.956;3.106;2023-02-28T13:39:52;2.50;;;2.03;;
17917;SDS011;9084;50.956;3.106;2023-02-28T13:58:09;2.60;;;2.40;;
17917;SDS011;9084;50.956;3.106;2023-02-28T14:03:37;3.53;;;2.17;;
17917;SDS011;9084;50.956;3.106;2023-02-28T14:11:48;2.07;;;1.87;;
17917;SDS011;9084;50.956;3.106;2023-02-28T14:17:04;2.53;;;1.90;;
17917;SDS011;9084;50.956;3.106;2023-02-28T14:19:35;1.97;;;1.47;;
17917;SDS011;9084;50.956;3.106;2023-02-28T14:33:04;1.97;;;1.27;;
17917;SDS011;9084;50.956;3.106;2023-02-28T14:38:55;1.33;;;1.20;;
17917;SDS011;9084;50.956;3.106;2023-02-28T14:41:28;3.70;;;1.30;;
17917;SDS011;9084;50.956;3.106;2023-02-28T14:43:55;1.30;;;1.20;;
17917;SDS011;9084;50.956;3.106;2023-02-28T14:46:35;1.67;;;1.57;;
17917;SDS011;9084;50.956;3.106;2023-02-28T14:49:04;4.67;;;1.50;;
17917;SDS011;9084;50.956;3.106;2023-02-28T14:51:32;3.10;;;1.50;;
17917;SDS011;9084;50.956;3.106;2023-02-28T14:53:59;4.20;;;1.50;;
17917;SDS011;9084;50.956;3.106;2023-02-28T14:56:36;9.87;;;1.83;;
17917;SDS011;9084;50.956;3.106;2023-02-28T14:59:03;4.50;;;1.60;;
17917;SDS011;9084;50.956;3.106;2023-02-28T15:01:30;2.00;;;1.80;;
17917;SDS011;9084;50.956;3.106;2023-02-28T15:04:00;2.33;;;1.60;;
17917;SDS011;9084;50.956;3.106;2023-02-28T15:06:30;2.23;;;1.73;;
17917;SDS011;9084;50.956;3.106;2023-02-28T15:09:13;2.47;;;1.70;;
17917;SDS011;9084;50.956;3.106;2023-02-28T15:11:45;1.73;;;1.50;;
17917;SDS011;9084;50.956;3.106;2023-02-28T15:14:19;1.40;;;1.27;;
17917;SDS011;9084;50.956;3.106;2023-02-28T15:16:47;2.00;;;1.63;;
17917;SDS011;9084;50.956;3.106;2023-02-28T15:19:24;1.73;;;1.50;;
17917;SDS011;9084;50.956;3.106;2023-02-28T15:21:58;4.23;;;1.70;;
17917;SDS011;9084;50.956;3.106;2023-02-28T15:27:05;1.30;;;1.20;;
17917;SDS011;9084;50.956;3.106;2023-02-28T15:29:41;1.70;;;1.50;;
17917;SDS011;9084;50.956;3.106;2023-02-28T15:32:21;4.20;;;1.73;;
17917;SDS011;9084;50.956;3.106;2023-02-28T15:35:19;2.20;;;1.40;;
17917;SDS011;9084;50.956;3.106;2023-02-28T15:37:46;2.33;;;1.77;;
17917;SDS011;9084;50.956;3.106;2023-02-28T15:40:22;1.70;;;1.60;;
17917;SDS011;9084;50.956;3.106;2023-02-28T15:43:11;1.90;;;1.30;;
17917;SDS011;9084;50.956;3.106;2023-02-28T15:48:21;2.63;;;1.50;;
17917;SDS011;9084;50.956;3.106;2023-02-28T15:50:57;2.03;;;1.77;;
17917;SDS011;9084;50.956;3.106;2023-02-28T15:56:32;2.77;;;1.50;;
17917;SDS011;9084;50.956;3.106;2023-02-28T15:59:06;2.37;;;1.70;;
17917;SDS011;9084;50.956;3.106;2023-02-28T16:01:40;1.57;;;1.47;;
17917;SDS011;9084;50.956;3.106;2023-02-28T16:04:16;1.97;;;1.70;;
17917;SDS011;9084;50.956;3.106;2023-02-28T16:06:54;3.23;;;1.63;;
17917;SDS011;9084;50.956;3.106;2023-02-28T16:09:37;2.90;;;1.43;;
17917;SDS011;9084;50.956;3.106;2023-02-28T16:12:03;2.67;;;1.50;;
17917;SDS011;9084;50.956;3.106;2023-02-28T16:14:32;1.90;;;1.60;;
17917;SDS011;9084;50.956;3.106;2023-02-28T16:17:06;3.97;;;1.90;;
17917;SDS011;9084;50.956;3.106;2023-02-28T16:19:41;2.83;;;1.87;;
17917;SDS011;9084;50.956;3.106;2023-02-28T16:22:08;2.50;;;2.03;;
17917;SDS011;9084;50.956;3.106;2023-02-28T16:24:34;1.93;;;1.63;;
17917;SDS011;9084;50.956;3.106;2023-02-28T16:27:00;2.20;;;2.00;;
17917;SDS011;9084;50.956;3.106;2023-02-28T16:29:33;3.47;;;2.30;;
17917;SDS011;9084;50.956;3.106;2023-02-28T16:32:01;2.07;;;1.73;;
17917;SDS011;9084;50.956;3.106;2023-02-28T16:34:30;1.90;;;1.80;;
17917;SDS011;9084;50.956;3.106;2023-02-28T16:36:55;1.83;;;1.67;;
17917;SDS011;9084;50.956;3.106;2023-02-28T16:39:21;2.83;;;1.97;;
17917;SDS011;9084;50.956;3.106;2023-02-28T16:41:49;2.83;;;2.17;;
17917;SDS011;9084;50.956;3.106;2023-02-28T16:44:23;2.83;;;1.97;;
17917;SDS011;9084;50.956;3.106;2023-02-28T16:46:53;4.90;;;2.23;;
17917;SDS011;9084;50.956;3.106;2023-02-28T16:49:19;3.87;;;2.57;;
17917;SDS011;9084;50.956;3.106;2023-02-28T16:51:45;3.33;;;2.63;;
17917;SDS011;9084;50.956;3.106;2023-02-28T16:54:12;3.63;;;2.20;;
17917;SDS011;9084;50.956;3.106;2023-02-28T16:56:38;3.53;;;2.37;;
17917;SDS011;9084;50.956;3.106;2023-02-28T16:59:11;2.10;;;1.90;;
17917;SDS011;9084;50.956;3.106;2023-02-28T17:01:37;3.17;;;2.23;;
17917;SDS011;9084;50.956;3.106;2023-02-28T17:04:03;2.67;;;2.43;;
17917;SDS011;9084;50.956;3.106;2023-02-28T17:06:29;2.50;;;2.30;;
17917;SDS011;9084;50.956;3.106;2023-02-28T17:08:57;4.00;;;1.97;;
17917;SDS011;9084;50.956;3.106;2023-02-28T17:11:24;3.50;;;2.70;;
17917;SDS011;9084;50.956;3.106;2023-02-28T17:13:55;4.47;;;2.83;;
17917;SDS011;9084;50.956;3.106;2023-02-28T17:16:28;4.60;;;2.87;;
17917;SDS011;9084;50.956;3.106;2023-02-28T17:18:56;4.73;;;3.03;;
17917;SDS011;9084;50.956;3.106;2023-02-28T17:21:27;5.30;;;3.47;;
17917;SDS011;9084;50.956;3.106;2023-02-28T17:23:52;5.67;;;3.70;;
17917;SDS011;9084;50.956;3.106;2023-02-28T17:26:19;3.93;;;3.40;;
17917;SDS011;9084;50.956;3.106;2023-02-28T17:28:49;5.87;;;3.90;;
17917;SDS011;9084;50.956;3.106;2023-02-28T17:31:16;4.47;;;2.97;;
17917;SDS011;9084;50.956;3.106;2023-02-28T17:33:42;24.90;;;20.10;;
17917;SDS011;9084;50.956;3.106;2023-02-28T17:36:15;11.30;;;10.10;;
17917;SDS011;9084;50.956;3.106;2023-02-28T17:38:47;12.17;;;11.07;;
17917;SDS011;9084;50.956;3.106;2023-02-28T17:41:14;21.33;;;19.30;;
17917;SDS011;9084;50.956;3.106;2023-02-28T17:43:42;12.57;;;8.87;;
17917;SDS011;9084;50.956;3.106;2023-02-28T17:46:15;16.03;;;14.40;;
17917;SDS011;9084;50.956;3.106;2023-02-28T17:48:46;23.90;;;21.53;;
17917;SDS011;9084;50.956;3.106;2023-02-28T17:51:13;9.77;;;8.87;;
17917;SDS011;9084;50.956;3.106;2023-02-28T17:53:40;284.37;;;160.67;;
17917;SDS011;9084;50.956;3.106;2023-02-28T17:56:16;150.57;;;85.17;;
17917;SDS011;9084;50.956;3.106;2023-02-28T17:58:48;554.57;;;345.93;;
17917;SDS011;9084;50.956;3.106;2023-02-28T18:01:16;302.87;;;180.73;;
17917;SDS011;9084;50.956;3.106;2023-02-28T18:03:42;147.60;;;96.23;;
17917;SDS011;9084;50.956;3.106;2023-02-28T18:06:15;48.90;;;35.00;;